sensor_id;sensor_type;location;lat;lon;timestamp;temperature;humidity
47482;DHT22;33219;47.410;9.730;2022-08-11T00:01:24;18.30;94.70
47482;DHT22;33219;47.410;9.730;2022-08-11T00:03:59;18.30;94.80
47482;DHT22;33219;47.410;9.730;2022-08-11T00:06:36;18.20;95.10
47482;DHT22;33219;47.410;9.730;2022-08-11T00:09:10;18.30;95.20
47482;DHT22;33219;47.410;9.730;2022-08-11T00:11:57;18.20;95.40
47482;DHT22;33219;47.410;9.730;2022-08-11T00:14:25;18.10;95.60
47482;DHT22;33219;47.410;9.730;2022-08-11T00:16:54;18.10;95.80
47482;DHT22;33219;47.410;9.730;2022-08-11T00:19:25;18.10;96.00
47482;DHT22;33219;47.410;9.730;2022-08-11T00:21:53;18.10;96.30
47482;DHT22;33219;47.410;9.730;2022-08-11T00:24:22;17.90;96.30
47482;DHT22;33219;47.410;9.730;2022-08-11T00:26:51;17.90;96.90
47482;DHT22;33219;47.410;9.730;2022-08-11T00:29:20;17.90;96.90
47482;DHT22;33219;47.410;9.730;2022-08-11T00:31:56;17.80;96.90
47482;DHT22;33219;47.410;9.730;2022-08-11T00:34:32;17.80;97.40
47482;DHT22;33219;47.410;9.730;2022-08-11T00:37:02;17.80;97.20
47482;DHT22;33219;47.410;9.730;2022-08-11T00:39:33;17.80;97.30
47482;DHT22;33219;47.410;9.730;2022-08-11T00:50:26;17.80;97.90
47482;DHT22;33219;47.410;9.730;2022-08-11T00:53:31;17.80;98.20
47482;DHT22;33219;47.410;9.730;2022-08-11T01:05:30;17.60;98.70
47482;DHT22;33219;47.410;9.730;2022-08-11T01:10:40;17.60;98.90
47482;DHT22;33219;47.410;9.730;2022-08-11T01:19:11;17.50;99.30
47482;DHT22;33219;47.410;9.730;2022-08-11T01:21:45;17.40;99.50
47482;DHT22;33219;47.410;9.730;2022-08-11T01:33:40;17.30;99.90
47482;DHT22;33219;47.410;9.730;2022-08-11T01:39:11;17.30;99.90
47482;DHT22;33219;47.410;9.730;2022-08-11T01:44:33;17.30;99.90
47482;DHT22;33219;47.410;9.730;2022-08-11T01:52:40;17.30;99.90
47482;DHT22;33219;47.410;9.730;2022-08-11T01:58:19;17.20;99.90
47482;DHT22;33219;47.410;9.730;2022-08-11T02:00:57;17.10;99.90
47482;DHT22;33219;47.410;9.730;2022-08-11T02:03:24;17.10;99.90
47482;DHT22;33219;47.410;9.730;2022-08-11T02:06:41;17.10;99.90
47482;DHT22;33219;47.410;9.730;2022-08-11T02:11:54;17.10;99.90
47482;DHT22;33219;47.410;9.730;2022-08-11T02:17:12;17.00;99.90
47482;DHT22;33219;47.410;9.730;2022-08-11T02:19:53;17.10;99.90
47482;DHT22;33219;47.410;9.730;2022-08-11T02:22:48;17.00;99.90
47482;DHT22;33219;47.410;9.730;2022-08-11T02:28:36;16.90;99.90
47482;DHT22;33219;47.410;9.730;2022-08-11T02:34:04;16.80;99.90
47482;DHT22;33219;47.410;9.730;2022-08-11T02:36:35;16.80;99.90
47482;DHT22;33219;47.410;9.730;2022-08-11T02:39:07;16.80;99.90
47482;DHT22;33219;47.410;9.730;2022-08-11T02:56:42;16.50;99.90
47482;DHT22;33219;47.410;9.730;2022-08-11T03:10:21;16.30;99.90
47482;DHT22;33219;47.410;9.730;2022-08-11T03:13:27;16.20;99.90
47482;DHT22;33219;47.410;9.730;2022-08-11T03:19:17;16.20;99.90
47482;DHT22;33219;47.410;9.730;2022-08-11T03:22:04;16.20;99.90
47482;DHT22;33219;47.410;9.730;2022-08-11T03:27:38;16.20;99.90
47482;DHT22;33219;47.410;9.730;2022-08-11T03:30:31;16.10;99.90
47482;DHT22;33219;47.410;9.730;2022-08-11T03:36:06;16.10;99.90
47482;DHT22;33219;47.410;9.730;2022-08-11T03:38:41;16.10;99.90
47482;DHT22;33219;47.410;9.730;2022-08-11T03:41:13;16.10;99.90
47482;DHT22;33219;47.410;9.730;2022-08-11T03:46:42;16.10;99.90
47482;DHT22;33219;47.410;9.730;2022-08-11T03:52:16;16.00;99.90
47482;DHT22;33219;47.410;9.730;2022-08-11T04:14:41;15.80;99.90
47482;DHT22;33219;47.410;9.730;2022-08-11T04:22:37;15.90;99.90
47482;DHT22;33219;47.410;9.730;2022-08-11T04:36:56;15.80;99.90
47482;DHT22;33219;47.410;9.730;2022-08-11T04:48:34;16.00;99.90
47482;DHT22;33219;47.410;9.730;2022-08-11T04:51:30;16.00;99.90
47482;DHT22;33219;47.410;9.730;2022-08-11T04:54:39;16.10;99.90
47482;DHT22;33219;47.410;9.730;2022-08-11T05:00:13;16.20;99.90
47482;DHT22;33219;47.410;9.730;2022-08-11T05:09:07;16.30;99.90
47482;DHT22;33219;47.410;9.730;2022-08-11T05:14:32;16.40;99.90
47482;DHT22;33219;47.410;9.730;2022-08-11T05:17:21;16.70;99.90
47482;DHT22;33219;47.410;9.730;2022-08-11T05:20:07;17.70;99.90
47482;DHT22;33219;47.410;9.730;2022-08-11T05:22:51;19.20;99.90
47482;DHT22;33219;47.410;9.730;2022-08-11T05:25:41;20.30;99.10
47482;DHT22;33219;47.410;9.730;2022-08-11T05:28:29;21.60;97.00
47482;DHT22;33219;47.410;9.730;2022-08-11T05:31:15;22.70;94.80
47482;DHT22;33219;47.410;9.730;2022-08-11T05:34:25;23.70;92.60
47482;DHT22;33219;47.410;9.730;2022-08-11T05:37:10;24.80;90.80
47482;DHT22;33219;47.410;9.730;2022-08-11T05:39:49;25.60;88.30
47482;DHT22;33219;47.410;9.730;2022-08-11T05:42:43;26.10;86.30
47482;DHT22;33219;47.410;9.730;2022-08-11T05:45:29;26.50;83.40
47482;DHT22;33219;47.410;9.730;2022-08-11T05:48:15;26.70;83.10
47482;DHT22;33219;47.410;9.730;2022-08-11T05:51:02;26.80;82.40
47482;DHT22;33219;47.410;9.730;2022-08-11T05:53:53;27.50;79.30
47482;DHT22;33219;47.410;9.730;2022-08-11T05:56:51;27.80;78.60
47482;DHT22;33219;47.410;9.730;2022-08-11T05:59:22;27.60;77.40
47482;DHT22;33219;47.410;9.730;2022-08-11T06:01:50;28.00;76.10
47482;DHT22;33219;47.410;9.730;2022-08-11T06:04:21;28.90;74.10
47482;DHT22;33219;47.410;9.730;2022-08-11T06:06:55;29.60;72.20
47482;DHT22;33219;47.410;9.730;2022-08-11T06:12:20;30.10;69.60
47482;DHT22;33219;47.410;9.730;2022-08-11T06:14:52;30.00;69.40
47482;DHT22;33219;47.410;9.730;2022-08-11T06:17:29;30.00;68.90
47482;DHT22;33219;47.410;9.730;2022-08-11T06:20:01;29.30;69.40
47482;DHT22;33219;47.410;9.730;2022-08-11T06:22:29;30.70;66.70
47482;DHT22;33219;47.410;9.730;2022-08-11T06:25:00;30.40;66.90
47482;DHT22;33219;47.410;9.730;2022-08-11T06:27:32;29.70;67.80
47482;DHT22;33219;47.410;9.730;2022-08-11T06:30:02;30.00;66.90
47482;DHT22;33219;47.410;9.730;2022-08-11T06:32:33;30.40;65.90
47482;DHT22;33219;47.410;9.730;2022-08-11T06:37:52;28.70;67.20
47482;DHT22;33219;47.410;9.730;2022-08-11T06:43:17;30.30;64.80
47482;DHT22;33219;47.410;9.730;2022-08-11T06:45:31;30.30;64.30
47482;DHT22;33219;47.410;9.730;2022-08-11T06:47:59;29.80;65.20
47482;DHT22;33219;47.410;9.730;2022-08-11T06:50:29;30.80;63.70
47482;DHT22;33219;47.410;9.730;2022-08-11T06:53:18;30.40;64.60
47482;DHT22;33219;47.410;9.730;2022-08-11T06:55:47;29.30;66.10
47482;DHT22;33219;47.410;9.730;2022-08-11T06:58:38;30.00;65.00
47482;DHT22;33219;47.410;9.730;2022-08-11T07:01:46;30.90;64.10
47482;DHT22;33219;47.410;9.730;2022-08-11T07:04:17;32.20;61.60
47482;DHT22;33219;47.410;9.730;2022-08-11T07:06:54;32.00;61.40
47482;DHT22;33219;47.410;9.730;2022-08-11T07:12:43;32.10;61.00
47482;DHT22;33219;47.410;9.730;2022-08-11T07:15:31;32.20;60.20
47482;DHT22;33219;47.410;9.730;2022-08-11T07:18:19;32.10;60.50
47482;DHT22;33219;47.410;9.730;2022-08-11T07:21:11;32.50;59.30
47482;DHT22;33219;47.410;9.730;2022-08-11T07:23:59;32.30;59.50
47482;DHT22;33219;47.410;9.730;2022-08-11T07:26:50;31.30;61.40
47482;DHT22;33219;47.410;9.730;2022-08-11T07:29:37;31.50;61.90
47482;DHT22;33219;47.410;9.730;2022-08-11T07:32:12;31.50;61.40
47482;DHT22;33219;47.410;9.730;2022-08-11T07:34:42;31.90;60.70
47482;DHT22;33219;47.410;9.730;2022-08-11T07:37:14;31.00;63.10
47482;DHT22;33219;47.410;9.730;2022-08-11T07:39:44;31.50;62.30
47482;DHT22;33219;47.410;9.730;2022-08-11T07:42:14;30.80;62.90
47482;DHT22;33219;47.410;9.730;2022-08-11T07:44:43;30.80;63.00
47482;DHT22;33219;47.410;9.730;2022-08-11T07:47:29;31.60;61.90
47482;DHT22;33219;47.410;9.730;2022-08-11T07:50:15;32.00;60.60
47482;DHT22;33219;47.410;9.730;2022-08-11T07:53:02;31.90;61.50
47482;DHT22;33219;47.410;9.730;2022-08-11T07:55:30;31.20;63.20
47482;DHT22;33219;47.410;9.730;2022-08-11T07:58:00;30.00;64.40
47482;DHT22;33219;47.410;9.730;2022-08-11T08:00:52;30.50;63.70
47482;DHT22;33219;47.410;9.730;2022-08-11T08:03:39;30.40;64.10
47482;DHT22;33219;47.410;9.730;2022-08-11T08:06:27;30.90;64.30
47482;DHT22;33219;47.410;9.730;2022-08-11T08:09:14;30.50;64.10
47482;DHT22;33219;47.410;9.730;2022-08-11T08:12:02;31.00;63.10
47482;DHT22;33219;47.410;9.730;2022-08-11T08:14:50;31.00;64.30
47482;DHT22;33219;47.410;9.730;2022-08-11T08:17:37;30.40;64.50
47482;DHT22;33219;47.410;9.730;2022-08-11T08:20:29;30.90;64.10
47482;DHT22;33219;47.410;9.730;2022-08-11T08:23:00;31.70;62.40
47482;DHT22;33219;47.410;9.730;2022-08-11T08:25:27;31.20;63.80
47482;DHT22;33219;47.410;9.730;2022-08-11T08:27:57;30.70;64.80
47482;DHT22;33219;47.410;9.730;2022-08-11T08:30:26;30.90;64.20
47482;DHT22;33219;47.410;9.730;2022-08-11T08:33:19;30.20;66.20
47482;DHT22;33219;47.410;9.730;2022-08-11T08:35:43;30.30;66.60
47482;DHT22;33219;47.410;9.730;2022-08-11T08:38:13;30.20;65.70
47482;DHT22;33219;47.410;9.730;2022-08-11T08:40:42;30.90;64.60
47482;DHT22;33219;47.410;9.730;2022-08-11T08:43:14;31.40;64.30
47482;DHT22;33219;47.410;9.730;2022-08-11T08:45:44;30.60;65.90
47482;DHT22;33219;47.410;9.730;2022-08-11T08:48:16;30.90;65.50
47482;DHT22;33219;47.410;9.730;2022-08-11T08:51:00;31.40;65.10
47482;DHT22;33219;47.410;9.730;2022-08-11T08:53:45;30.60;65.80
47482;DHT22;33219;47.410;9.730;2022-08-11T08:56:11;30.80;65.50
47482;DHT22;33219;47.410;9.730;2022-08-11T08:58:41;30.20;66.50
47482;DHT22;33219;47.410;9.730;2022-08-11T09:01:10;30.40;66.30
47482;DHT22;33219;47.410;9.730;2022-08-11T09:03:40;29.30;68.40
47482;DHT22;33219;47.410;9.730;2022-08-11T09:06:09;29.20;68.60
47482;DHT22;33219;47.410;9.730;2022-08-11T09:08:38;29.10;68.30
47482;DHT22;33219;47.410;9.730;2022-08-11T09:11:10;29.90;66.60
47482;DHT22;33219;47.410;9.730;2022-08-11T09:13:53;30.60;65.40
47482;DHT22;33219;47.410;9.730;2022-08-11T09:16:22;30.60;65.20
47482;DHT22;33219;47.410;9.730;2022-08-11T09:18:51;30.60;64.80
47482;DHT22;33219;47.410;9.730;2022-08-11T09:21:19;29.80;66.20
47482;DHT22;33219;47.410;9.730;2022-08-11T09:23:49;29.20;67.40
47482;DHT22;33219;47.410;9.730;2022-08-11T09:26:36;29.90;66.60
47482;DHT22;33219;47.410;9.730;2022-08-11T09:29:15;29.80;65.90
47482;DHT22;33219;47.410;9.730;2022-08-11T09:31:43;30.00;65.50
47482;DHT22;33219;47.410;9.730;2022-08-11T09:34:12;30.30;65.60
47482;DHT22;33219;47.410;9.730;2022-08-11T09:36:42;30.40;65.30
47482;DHT22;33219;47.410;9.730;2022-08-11T09:39:29;30.50;64.70
47482;DHT22;33219;47.410;9.730;2022-08-11T09:42:16;30.60;64.90
47482;DHT22;33219;47.410;9.730;2022-08-11T09:44:45;29.90;65.90
47482;DHT22;33219;47.410;9.730;2022-08-11T09:47:22;30.10;64.80
47482;DHT22;33219;47.410;9.730;2022-08-11T09:49:56;30.30;65.20
47482;DHT22;33219;47.410;9.730;2022-08-11T09:52:25;29.70;65.10
47482;DHT22;33219;47.410;9.730;2022-08-11T09:54:55;29.60;65.00
47482;DHT22;33219;47.410;9.730;2022-08-11T09:57:23;29.40;65.90
47482;DHT22;33219;47.410;9.730;2022-08-11T10:00:11;28.80;67.60
47482;DHT22;33219;47.410;9.730;2022-08-11T10:02:43;28.50;68.70
47482;DHT22;33219;47.410;9.730;2022-08-11T10:05:14;28.40;67.30
47482;DHT22;33219;47.410;9.730;2022-08-11T10:08:00;28.40;68.80
47482;DHT22;33219;47.410;9.730;2022-08-11T10:10:29;28.50;67.80
47482;DHT22;33219;47.410;9.730;2022-08-11T10:13:02;28.60;67.60
47482;DHT22;33219;47.410;9.730;2022-08-11T10:15:30;28.20;68.20
47482;DHT22;33219;47.410;9.730;2022-08-11T10:21:02;28.20;68.60
47482;DHT22;33219;47.410;9.730;2022-08-11T10:23:32;28.00;68.80
47482;DHT22;33219;47.410;9.730;2022-08-11T10:26:15;27.70;69.80
47482;DHT22;33219;47.410;9.730;2022-08-11T10:29:02;27.70;69.70
47482;DHT22;33219;47.410;9.730;2022-08-11T10:31:33;27.50;69.90
47482;DHT22;33219;47.410;9.730;2022-08-11T10:34:20;27.30;70.20
47482;DHT22;33219;47.410;9.730;2022-08-11T10:36:49;27.30;70.40
47482;DHT22;33219;47.410;9.730;2022-08-11T10:39:19;27.30;70.90
47482;DHT22;33219;47.410;9.730;2022-08-11T10:41:47;26.70;71.60
47482;DHT22;33219;47.410;9.730;2022-08-11T10:44:42;26.50;72.70
47482;DHT22;33219;47.410;9.730;2022-08-11T10:47:09;26.50;73.30
47482;DHT22;33219;47.410;9.730;2022-08-11T10:49:55;26.70;72.70
47482;DHT22;33219;47.410;9.730;2022-08-11T10:52:43;27.00;72.00
47482;DHT22;33219;47.410;9.730;2022-08-11T10:55:29;27.00;72.40
47482;DHT22;33219;47.410;9.730;2022-08-11T10:58:16;27.20;73.00
47482;DHT22;33219;47.410;9.730;2022-08-11T11:01:02;27.40;70.70
47482;DHT22;33219;47.410;9.730;2022-08-11T11:03:31;27.30;70.60
47482;DHT22;33219;47.410;9.730;2022-08-11T11:06:13;27.30;71.00
47482;DHT22;33219;47.410;9.730;2022-08-11T11:08:43;27.00;71.20
47482;DHT22;33219;47.410;9.730;2022-08-11T11:11:29;26.90;72.20
47482;DHT22;33219;47.410;9.730;2022-08-11T11:13:53;27.00;72.50
47482;DHT22;33219;47.410;9.730;2022-08-11T11:16:40;27.10;71.50
47482;DHT22;33219;47.410;9.730;2022-08-11T11:19:27;27.20;71.40
47482;DHT22;33219;47.410;9.730;2022-08-11T11:21:56;27.40;71.60
47482;DHT22;33219;47.410;9.730;2022-08-11T11:27:34;27.40;71.40
47482;DHT22;33219;47.410;9.730;2022-08-11T11:30:06;27.30;71.20
47482;DHT22;33219;47.410;9.730;2022-08-11T11:37:59;28.00;71.10
47482;DHT22;33219;47.410;9.730;2022-08-11T11:40:28;28.30;71.50
47482;DHT22;33219;47.410;9.730;2022-08-11T11:42:57;28.20;70.80
47482;DHT22;33219;47.410;9.730;2022-08-11T11:45:25;28.30;69.60
47482;DHT22;33219;47.410;9.730;2022-08-11T11:47:55;28.30;70.00
47482;DHT22;33219;47.410;9.730;2022-08-11T11:50:28;28.10;70.10
47482;DHT22;33219;47.410;9.730;2022-08-11T11:52:59;28.10;70.30
47482;DHT22;33219;47.410;9.730;2022-08-11T11:55:27;28.00;70.80
47482;DHT22;33219;47.410;9.730;2022-08-11T11:57:57;28.10;71.10
47482;DHT22;33219;47.410;9.730;2022-08-11T12:00:45;28.30;71.50
47482;DHT22;33219;47.410;9.730;2022-08-11T12:03:33;28.40;71.40
47482;DHT22;33219;47.410;9.730;2022-08-11T12:06:02;28.20;70.40
47482;DHT22;33219;47.410;9.730;2022-08-11T12:08:30;28.30;70.70
47482;DHT22;33219;47.410;9.730;2022-08-11T12:11:04;28.40;70.90
47482;DHT22;33219;47.410;9.730;2022-08-11T12:13:52;28.60;71.30
47482;DHT22;33219;47.410;9.730;2022-08-11T12:16:21;28.70;70.00
47482;DHT22;33219;47.410;9.730;2022-08-11T12:18:52;28.60;70.10
47482;DHT22;33219;47.410;9.730;2022-08-11T12:21:21;28.70;69.60
47482;DHT22;33219;47.410;9.730;2022-08-11T12:23:51;28.60;70.50
47482;DHT22;33219;47.410;9.730;2022-08-11T12:26:37;28.30;70.00
47482;DHT22;33219;47.410;9.730;2022-08-11T12:29:18;28.10;71.60
47482;DHT22;33219;47.410;9.730;2022-08-11T12:31:46;28.10;71.60
47482;DHT22;33219;47.410;9.730;2022-08-11T12:34:16;28.10;71.00
47482;DHT22;33219;47.410;9.730;2022-08-11T12:36:50;28.00;70.90
47482;DHT22;33219;47.410;9.730;2022-08-11T12:39:18;28.10;71.70
47482;DHT22;33219;47.410;9.730;2022-08-11T12:41:45;28.10;71.80
47482;DHT22;33219;47.410;9.730;2022-08-11T12:44:32;28.40;71.20
47482;DHT22;33219;47.410;9.730;2022-08-11T12:47:19;28.30;71.50
47482;DHT22;33219;47.410;9.730;2022-08-11T12:49:48;28.30;70.70
47482;DHT22;33219;47.410;9.730;2022-08-11T12:52:41;28.20;71.10
47482;DHT22;33219;47.410;9.730;2022-08-11T12:55:12;28.20;72.10
47482;DHT22;33219;47.410;9.730;2022-08-11T12:57:44;28.40;71.90
47482;DHT22;33219;47.410;9.730;2022-08-11T13:00:31;28.50;71.50
47482;DHT22;33219;47.410;9.730;2022-08-11T13:03:19;28.60;71.90
47482;DHT22;33219;47.410;9.730;2022-08-11T13:06:05;28.70;71.90
47482;DHT22;33219;47.410;9.730;2022-08-11T13:08:36;28.60;71.10
47482;DHT22;33219;47.410;9.730;2022-08-11T13:11:04;28.50;70.70
47482;DHT22;33219;47.410;9.730;2022-08-11T13:13:51;28.40;71.80
47482;DHT22;33219;47.410;9.730;2022-08-11T13:16:28;28.40;71.70
47482;DHT22;33219;47.410;9.730;2022-08-11T13:18:51;28.50;71.60
47482;DHT22;33219;47.410;9.730;2022-08-11T13:21:20;28.50;72.00
47482;DHT22;33219;47.410;9.730;2022-08-11T13:23:51;28.10;71.60
47482;DHT22;33219;47.410;9.730;2022-08-11T13:26:22;28.10;73.10
47482;DHT22;33219;47.410;9.730;2022-08-11T13:28:50;28.20;72.50
47482;DHT22;33219;47.410;9.730;2022-08-11T13:31:18;28.30;72.20
47482;DHT22;33219;47.410;9.730;2022-08-11T13:33:49;28.30;71.60
47482;DHT22;33219;47.410;9.730;2022-08-11T13:36:20;28.40;72.00
47482;DHT22;33219;47.410;9.730;2022-08-11T13:38:50;28.30;72.10
47482;DHT22;33219;47.410;9.730;2022-08-11T13:41:19;28.40;72.30
47482;DHT22;33219;47.410;9.730;2022-08-11T13:44:07;28.30;71.90
47482;DHT22;33219;47.410;9.730;2022-08-11T13:46:36;28.30;72.30
47482;DHT22;33219;47.410;9.730;2022-08-11T13:49:04;28.30;72.90
47482;DHT22;33219;47.410;9.730;2022-08-11T13:51:36;28.30;73.40
47482;DHT22;33219;47.410;9.730;2022-08-11T13:54:16;28.20;72.60
47482;DHT22;33219;47.410;9.730;2022-08-11T13:56:50;28.30;72.50
47482;DHT22;33219;47.410;9.730;2022-08-11T13:59:19;28.40;73.70
47482;DHT22;33219;47.410;9.730;2022-08-11T14:01:53;28.30;72.80
47482;DHT22;33219;47.410;9.730;2022-08-11T14:04:37;28.30;73.70
47482;DHT22;33219;47.410;9.730;2022-08-11T14:07:08;28.30;72.40
47482;DHT22;33219;47.410;9.730;2022-08-11T14:09:39;28.20;72.70
47482;DHT22;33219;47.410;9.730;2022-08-11T14:12:15;28.20;72.60
47482;DHT22;33219;47.410;9.730;2022-08-11T14:15:06;28.20;73.00
47482;DHT22;33219;47.410;9.730;2022-08-11T14:17:35;28.20;73.00
47482;DHT22;33219;47.410;9.730;2022-08-11T14:20:06;28.30;72.80
47482;DHT22;33219;47.410;9.730;2022-08-11T14:22:36;28.40;73.10
47482;DHT22;33219;47.410;9.730;2022-08-11T14:25:05;28.30;72.20
47482;DHT22;33219;47.410;9.730;2022-08-11T14:27:33;28.30;73.50
47482;DHT22;33219;47.410;9.730;2022-08-11T14:30:01;28.20;73.70
47482;DHT22;33219;47.410;9.730;2022-08-11T14:32:29;28.20;72.40
47482;DHT22;33219;47.410;9.730;2022-08-11T14:34:58;28.20;72.40
47482;DHT22;33219;47.410;9.730;2022-08-11T14:37:27;28.30;73.10
47482;DHT22;33219;47.410;9.730;2022-08-11T14:39:59;28.40;73.20
47482;DHT22;33219;47.410;9.730;2022-08-11T14:42:29;28.50;72.70
47482;DHT22;33219;47.410;9.730;2022-08-11T14:45:16;28.60;73.30
47482;DHT22;33219;47.410;9.730;2022-08-11T14:48:04;28.70;72.60
47482;DHT22;33219;47.410;9.730;2022-08-11T14:50:33;28.70;71.90
47482;DHT22;33219;47.410;9.730;2022-08-11T14:53:06;28.70;72.40
47482;DHT22;33219;47.410;9.730;2022-08-11T14:55:39;28.70;72.30
47482;DHT22;33219;47.410;9.730;2022-08-11T14:58:27;28.70;71.70
47482;DHT22;33219;47.410;9.730;2022-08-11T15:00:57;28.80;70.90
47482;DHT22;33219;47.410;9.730;2022-08-11T15:03:27;28.70;72.30
47482;DHT22;33219;47.410;9.730;2022-08-11T15:05:57;28.60;72.70
47482;DHT22;33219;47.410;9.730;2022-08-11T15:08:27;28.60;72.20
47482;DHT22;33219;47.410;9.730;2022-08-11T15:11:15;28.50;71.90
47482;DHT22;33219;47.410;9.730;2022-08-11T15:14:03;28.40;71.40
47482;DHT22;33219;47.410;9.730;2022-08-11T15:16:32;28.30;71.80
47482;DHT22;33219;47.410;9.730;2022-08-11T15:19:19;28.30;73.20
47482;DHT22;33219;47.410;9.730;2022-08-11T15:21:48;28.30;73.50
47482;DHT22;33219;47.410;9.730;2022-08-11T15:24:34;28.40;74.00
47482;DHT22;33219;47.410;9.730;2022-08-11T15:27:05;28.30;71.80
47482;DHT22;33219;47.410;9.730;2022-08-11T15:29:51;28.30;72.80
47482;DHT22;33219;47.410;9.730;2022-08-11T15:32:38;28.30;73.20
47482;DHT22;33219;47.410;9.730;2022-08-11T15:35:27;28.20;73.20
47482;DHT22;33219;47.410;9.730;2022-08-11T15:38:13;28.10;73.00
47482;DHT22;33219;47.410;9.730;2022-08-11T15:40:42;28.10;73.10
47482;DHT22;33219;47.410;9.730;2022-08-11T15:43:37;28.10;73.00
47482;DHT22;33219;47.410;9.730;2022-08-11T15:46:27;28.10;72.20
47482;DHT22;33219;47.410;9.730;2022-08-11T15:48:58;28.10;72.30
47482;DHT22;33219;47.410;9.730;2022-08-11T15:51:46;28.10;72.30
47482;DHT22;33219;47.410;9.730;2022-08-11T15:54:16;28.10;72.10
47482;DHT22;33219;47.410;9.730;2022-08-11T15:56:47;28.00;72.40
47482;DHT22;33219;47.410;9.730;2022-08-11T15:59:17;27.90;72.10
47482;DHT22;33219;47.410;9.730;2022-08-11T16:02:04;28.00;71.90
47482;DHT22;33219;47.410;9.730;2022-08-11T16:04:52;27.90;72.90
47482;DHT22;33219;47.410;9.730;2022-08-11T16:07:22;27.90;72.40
47482;DHT22;33219;47.410;9.730;2022-08-11T16:12:28;27.90;73.70
47482;DHT22;33219;47.410;9.730;2022-08-11T16:15:03;27.90;72.40
47482;DHT22;33219;47.410;9.730;2022-08-11T16:17:55;27.90;72.80
47482;DHT22;33219;47.410;9.730;2022-08-11T16:20:25;28.00;73.90
47482;DHT22;33219;47.410;9.730;2022-08-11T16:22:55;28.00;74.30
47482;DHT22;33219;47.410;9.730;2022-08-11T16:25:24;28.00;73.90
47482;DHT22;33219;47.410;9.730;2022-08-11T16:27:58;28.00;73.50
47482;DHT22;33219;47.410;9.730;2022-08-11T16:30:28;28.10;73.40
47482;DHT22;33219;47.410;9.730;2022-08-11T16:32:57;28.10;73.80
47482;DHT22;33219;47.410;9.730;2022-08-11T16:35:27;28.10;73.00
47482;DHT22;33219;47.410;9.730;2022-08-11T16:38:13;27.80;72.50
47482;DHT22;33219;47.410;9.730;2022-08-11T16:41:04;27.80;73.00
47482;DHT22;33219;47.410;9.730;2022-08-11T16:43:45;27.70;74.90
47482;DHT22;33219;47.410;9.730;2022-08-11T16:46:32;27.60;73.90
47482;DHT22;33219;47.410;9.730;2022-08-11T16:49:26;27.60;72.50
47482;DHT22;33219;47.410;9.730;2022-08-11T16:51:50;27.50;73.00
47482;DHT22;33219;47.410;9.730;2022-08-11T16:54:19;27.50;73.30
47482;DHT22;33219;47.410;9.730;2022-08-11T16:56:49;27.40;73.90
47482;DHT22;33219;47.410;9.730;2022-08-11T16:59:35;27.30;73.20
47482;DHT22;33219;47.410;9.730;2022-08-11T17:02:05;27.20;72.80
47482;DHT22;33219;47.410;9.730;2022-08-11T17:07:25;27.10;74.30
47482;DHT22;33219;47.410;9.730;2022-08-11T17:10:23;27.00;75.00
47482;DHT22;33219;47.410;9.730;2022-08-11T17:13:09;26.90;75.10
47482;DHT22;33219;47.410;9.730;2022-08-11T17:15:48;26.70;75.90
47482;DHT22;33219;47.410;9.730;2022-08-11T17:18:28;26.50;75.80
47482;DHT22;33219;47.410;9.730;2022-08-11T17:21:29;26.40;75.60
47482;DHT22;33219;47.410;9.730;2022-08-11T17:24:05;26.30;75.00
47482;DHT22;33219;47.410;9.730;2022-08-11T17:26:41;26.30;76.30
47482;DHT22;33219;47.410;9.730;2022-08-11T17:29:47;26.20;76.50
47482;DHT22;33219;47.410;9.730;2022-08-11T17:32:40;26.10;76.80
47482;DHT22;33219;47.410;9.730;2022-08-11T17:35:29;26.00;76.80
47482;DHT22;33219;47.410;9.730;2022-08-11T17:38:17;26.00;77.00
47482;DHT22;33219;47.410;9.730;2022-08-11T17:40:51;25.90;77.40
47482;DHT22;33219;47.410;9.730;2022-08-11T17:43:34;25.80;77.90
47482;DHT22;33219;47.410;9.730;2022-08-11T17:46:21;25.70;79.20
47482;DHT22;33219;47.410;9.730;2022-08-11T17:49:09;25.70;78.30
47482;DHT22;33219;47.410;9.730;2022-08-11T17:51:39;25.60;78.30
47482;DHT22;33219;47.410;9.730;2022-08-11T17:54:27;25.50;79.10
47482;DHT22;33219;47.410;9.730;2022-08-11T17:57:12;25.40;78.30
47482;DHT22;33219;47.410;9.730;2022-08-11T18:00:00;25.40;78.50
47482;DHT22;33219;47.410;9.730;2022-08-11T18:02:32;25.40;80.10
47482;DHT22;33219;47.410;9.730;2022-08-11T18:05:19;25.30;80.70
47482;DHT22;33219;47.410;9.730;2022-08-11T18:07:49;25.20;80.50
47482;DHT22;33219;47.410;9.730;2022-08-11T18:10:36;25.10;81.90
47482;DHT22;33219;47.410;9.730;2022-08-11T18:13:26;25.00;81.80
47482;DHT22;33219;47.410;9.730;2022-08-11T18:16:11;24.80;82.20
47482;DHT22;33219;47.410;9.730;2022-08-11T18:18:57;24.70;82.20
47482;DHT22;33219;47.410;9.730;2022-08-11T18:21:44;24.60;82.90
47482;DHT22;33219;47.410;9.730;2022-08-11T18:24:37;24.50;83.30
47482;DHT22;33219;47.410;9.730;2022-08-11T18:27:24;24.40;83.10
47482;DHT22;33219;47.410;9.730;2022-08-11T18:30:11;24.30;84.40
47482;DHT22;33219;47.410;9.730;2022-08-11T18:32:59;24.20;83.60
47482;DHT22;33219;47.410;9.730;2022-08-11T18:35:48;24.10;84.00
47482;DHT22;33219;47.410;9.730;2022-08-11T18:38:33;24.10;85.10
47482;DHT22;33219;47.410;9.730;2022-08-11T18:41:19;24.00;85.30
47482;DHT22;33219;47.410;9.730;2022-08-11T18:44:06;23.90;86.10
47482;DHT22;33219;47.410;9.730;2022-08-11T18:46:52;23.90;86.50
47482;DHT22;33219;47.410;9.730;2022-08-11T18:49:40;23.70;86.70
47482;DHT22;33219;47.410;9.730;2022-08-11T18:52:28;23.60;87.20
47482;DHT22;33219;47.410;9.730;2022-08-11T18:55:17;23.50;87.50
47482;DHT22;33219;47.410;9.730;2022-08-11T18:58:06;23.50;88.30
47482;DHT22;33219;47.410;9.730;2022-08-11T19:00:54;23.40;89.00
47482;DHT22;33219;47.410;9.730;2022-08-11T19:03:41;23.30;88.90
47482;DHT22;33219;47.410;9.730;2022-08-11T19:06:29;23.20;89.00
47482;DHT22;33219;47.410;9.730;2022-08-11T19:09:16;23.10;89.30
47482;DHT22;33219;47.410;9.730;2022-08-11T19:12:05;23.00;89.50
47482;DHT22;33219;47.410;9.730;2022-08-11T19:14:52;23.00;89.60
47482;DHT22;33219;47.410;9.730;2022-08-11T19:17:40;23.00;89.80
47482;DHT22;33219;47.410;9.730;2022-08-11T19:20:29;22.90;90.00
47482;DHT22;33219;47.410;9.730;2022-08-11T19:23:18;22.80;89.90
47482;DHT22;33219;47.410;9.730;2022-08-11T19:26:05;22.80;90.00
47482;DHT22;33219;47.410;9.730;2022-08-11T19:28:53;22.80;90.30
47482;DHT22;33219;47.410;9.730;2022-08-11T19:31:40;22.70;90.50
47482;DHT22;33219;47.410;9.730;2022-08-11T19:34:26;22.60;90.50
47482;DHT22;33219;47.410;9.730;2022-08-11T19:37:13;22.50;90.70
47482;DHT22;33219;47.410;9.730;2022-08-11T19:40:04;22.40;91.00
47482;DHT22;33219;47.410;9.730;2022-08-11T19:42:50;22.40;91.10
47482;DHT22;33219;47.410;9.730;2022-08-11T19:45:37;22.30;91.40
47482;DHT22;33219;47.410;9.730;2022-08-11T19:48:23;22.20;91.40